Time;durP1;ratioP1;P1;durP2;ratioP2;P2;SDS_P1;SDS_P2;PMS_P1;PMS_P2;Temp;Humidity;BMP_temperature;BMP_pressure;BME280_temperature;BME280_humidity;BME280_pressure;Samples;Min_cycle;Max_cycle;Signal;HPM_P1;HPM_P2
2023/07/25 00:00:31;;;;;;;21.58;11.70;;;;;;;-142.57;92.97;115900.28;6268855;23;20056;-86
2023/07/25 00:02:57;;;;;;;27.15;11.90;;;;;;;-142.57;92.64;115900.28;6241642;23;20000;-86
2023/07/25 00:05:42;;;;;;;17.48;11.00;;;;;;;-142.57;92.50;115900.28;6237792;23;20072;-85
2023/07/25 00:08:08;;;;;;;22.67;12.02;;;;;;;-142.57;92.58;115900.28;6252168;23;20008;-87
2023/07/25 00:10:34;;;;;;;21.98;11.88;;;;;;;-142.57;92.87;115900.28;6251925;23;20004;-87
2023/07/25 00:12:59;;;;;;;33.47;11.73;;;;;;;-142.57;93.27;115900.28;6251777;23;20028;-86
2023/07/25 00:15:28;;;;;;;24.40;11.75;;;;;;;-142.57;93.93;115900.28;6250097;23;20044;-86
2023/07/25 00:17:54;;;;;;;23.75;11.70;;;;;;;-142.57;94.34;115900.28;6249109;23;20465;-86
2023/07/25 00:20:19;;;;;;;24.67;12.02;;;;;;;-142.57;94.43;115900.28;6252490;23;20079;-87
2023/07/25 00:22:45;;;;;;;22.13;12.13;;;;;;;-142.57;94.31;115900.28;6251393;23;20395;-85
2023/07/25 00:25:10;;;;;;;26.88;11.13;;;;;;;-142.57;94.82;115900.28;6252840;23;20431;-86
2023/07/25 00:27:36;;;;;;;15.75;9.60;;;;;;;-142.57;93.46;115900.28;6251274;23;20050;-87
2023/07/25 00:30:04;;;;;;;16.90;9.85;;;;;;;-142.57;93.17;115900.28;6250712;23;20044;-87
2023/07/25 00:32:32;;;;;;;20.52;9.63;;;;;;;-142.57;93.37;115900.28;6222208;23;20012;-86
2023/07/25 00:34:58;;;;;;;18.23;9.57;;;;;;;-142.57;93.64;115900.28;6221945;23;20019;-87
2023/07/25 00:37:23;;;;;;;21.58;9.32;;;;;;;-142.57;93.84;115900.28;6251240;23;20008;-86
2023/07/25 00:39:53;;;;;;;18.17;8.90;;;;;;;-142.57;95.40;115900.28;6223758;23;20004;-87
2023/07/25 00:42:21;;;;;;;17.48;9.02;;;;;;;-142.57;95.93;115900.28;6199410;23;20019;-86
2023/07/25 00:44:47;;;;;;;20.88;9.10;;;;;;;-142.57;97.23;115900.28;6224372;23;20056;-85
2023/07/25 00:47:14;;;;;;;22.40;9.52;;;;;;;-142.57;97.67;115900.28;6249429;23;20462;-86
2023/07/25 00:49:42;;;;;;;22.80;10.40;;;;;;;-142.57;97.78;115900.28;6226075;23;20039;-85
2023/07/25 00:52:08;;;;;;;16.90;9.07;;;;;;;-142.57;96.41;115900.28;6232434;23;20012;-84
2023/07/25 00:54:38;;;;;;;15.35;8.23;;;;;;;-142.57;96.85;115900.28;6256944;23;20478;-87
2023/07/25 00:57:04;;;;;;;16.58;6.95;;;;;;;-142.57;95.46;115900.28;6224205;23;20003;-86
2023/07/25 00:59:30;;;;;;;19.15;7.88;;;;;;;-142.57;96.37;115900.28;6251309;23;20027;-87
2023/07/25 01:01:55;;;;;;;16.38;7.35;;;;;;;-142.57;96.78;115900.28;6253037;23;20012;-85
2023/07/25 01:04:21;;;;;;;18.13;7.35;;;;;;;-142.57;95.06;115900.28;6251880;23;20012;-87
2023/07/25 01:06:47;;;;;;;18.88;7.95;;;;;;;-142.57;95.99;115900.28;6249029;23;20008;-88
2023/07/25 01:09:14;;;;;;;15.00;7.25;;;;;;;-142.57;96.66;115900.28;6251576;23;20058;-87
2023/07/25 01:11:40;;;;;;;11.93;6.80;;;;;;;-142.57;96.60;115900.28;6223952;23;20012;-88
2023/07/25 01:14:06;;;;;;;14.75;7.05;;;;;;;-142.57;95.75;115900.28;6247526;23;20519;-86
2023/07/25 01:16:33;;;;;;;13.95;6.90;;;;;;;-142.57;95.18;115900.28;6221107;23;20331;-86
2023/07/25 01:19:00;;;;;;;13.45;7.00;;;;;;;-142.57;96.07;115900.28;6221516;23;20062;-86
2023/07/25 01:21:27;;;;;;;12.48;6.45;;;;;;;-142.57;96.34;115900.28;6221472;23;20427;-86
2023/07/25 01:23:52;;;;;;;17.58;7.97;;;;;;;-142.57;94.92;115900.28;6250865;23;20448;-86
2023/07/25 01:26:18;;;;;;;16.30;7.22;;;;;;;-142.57;94.54;115900.28;6250462;23;20020;-84
2023/07/25 01:28:44;;;;;;;21.52;7.65;;;;;;;-142.57;94.28;115900.28;6250757;23;20148;-87
2023/07/25 01:31:09;;;;;;;21.75;7.25;;;;;;;-142.57;96.20;115900.28;6250197;23;20057;-87
2023/07/25 01:33:35;;;;;;;17.45;6.90;;;;;;;-142.57;95.26;115900.28;6248084;23;20020;-86
2023/07/25 01:36:01;;;;;;;18.10;7.90;;;;;;;-142.57;95.95;115900.28;6194814;23;20343;-88
2023/07/25 01:38:27;;;;;;;20.60;7.65;;;;;;;-142.57;96.66;115900.28;6223173;23;20004;-85
2023/07/25 01:40:52;;;;;;;13.95;7.72;;;;;;;-142.57;97.41;115900.28;6250717;23;20008;-88
2023/07/25 01:43:18;;;;;;;16.23;8.25;;;;;;;-142.57;97.35;115900.28;6197529;23;20458;-88
2023/07/25 01:45:43;;;;;;;17.42;8.70;;;;;;;-142.57;98.66;115900.28;6251286;23;20153;-86
2023/07/25 01:48:09;;;;;;;15.10;8.73;;;;;;;-142.57;100.00;115900.28;6250753;23;20011;-89
2023/07/25 01:50:35;;;;;;;17.67;9.45;;;;;;;-142.57;100.00;115900.28;6199090;23;20027;-86
2023/07/25 01:53:00;;;;;;;16.73;9.18;;;;;;;-142.57;100.00;115900.28;6223877;23;20004;-87
2023/07/25 01:55:29;;;;;;;20.77;9.82;;;;;;;-142.57;100.00;115900.28;6250400;23;20004;-86
2023/07/25 01:57:54;;;;;;;19.95;10.05;;;;;;;-142.57;100.00;115900.28;6222132;23;20034;-85
2023/07/25 02:00:20;;;;;;;19.95;9.52;;;;;;;-142.57;100.00;115900.28;6246489;23;20039;-86
2023/07/25 02:02:45;;;;;;;17.23;9.23;;;;;;;-142.57;100.00;115900.28;6247837;23;20019;-88
2023/07/25 02:05:11;;;;;;;19.23;9.07;;;;;;;-142.57;100.00;115900.28;6219632;23;20008;-85
2023/07/25 02:07:36;;;;;;;18.90;9.45;;;;;;;-142.57;100.00;115900.28;6246210;23;20062;-86
2023/07/25 02:10:02;;;;;;;18.13;9.27;;;;;;;-142.57;100.00;115900.28;6247311;23;20099;-85
2023/07/25 02:12:30;;;;;;;21.83;9.38;;;;;;;-142.57;100.00;115900.28;6221974;23;20466;-86
2023/07/25 02:14:56;;;;;;;17.30;8.30;;;;;;;-142.57;100.00;115900.28;6249371;23;20062;-86
2023/07/25 02:17:21;;;;;;;23.10;9.77;;;;;;;-142.57;100.00;115900.28;6194322;23;20004;-84
2023/07/25 02:19:47;;;;;;;17.38;8.88;;;;;;;-142.57;100.00;115900.28;6218554;23;20004;-87
2023/07/25 02:22:12;;;;;;;16.30;8.48;;;;;;;-142.57;100.00;115900.28;6219897;23;20004;-86
2023/07/25 02:24:38;;;;;;;16.55;8.13;;;;;;;-142.57;100.00;115900.28;6246406;23;20012;-85
2023/07/25 02:27:04;;;;;;;16.73;8.30;;;;;;;-142.57;100.00;115900.28;6218662;23;20210;-86
2023/07/25 02:29:30;;;;;;;17.33;8.50;;;;;;;-142.57;100.00;115900.28;6219221;23;20015;-84
2023/07/25 02:31:56;;;;;;;15.85;8.93;;;;;;;-142.57;100.00;115900.28;6219040;23;20019;-84
2023/07/25 02:34:21;;;;;;;21.15;8.82;;;;;;;-142.57;100.00;115900.28;6220140;23;20102;-86
2023/07/25 02:36:47;;;;;;;17.92;8.95;;;;;;;-142.57;100.00;115900.28;6246933;23;20032;-83
2023/07/25 02:39:13;;;;;;;14.98;8.35;;;;;;;-142.57;100.00;115900.28;6246278;23;20111;-84
2023/07/25 02:41:38;;;;;;;15.85;8.63;;;;;;;-142.57;100.00;115900.28;6247879;23;20004;-85
2023/07/25 02:44:04;;;;;;;19.35;12.18;;;;;;;-142.57;100.00;115900.28;6222799;23;20035;-85
2023/07/25 02:46:30;;;;;;;22.92;11.45;;;;;;;-142.57;100.00;115900.28;6251731;23;20008;-86
2023/07/25 02:48:56;;;;;;;21.63;11.48;;;;;;;-142.57;100.00;115900.28;6223731;23;20036;-86
2023/07/25 02:51:21;;;;;;;25.20;13.18;;;;;;;-142.57;100.00;115900.28;6248499;23;20091;-87
2023/07/25 02:53:47;;;;;;;20.67;12.18;;;;;;;-142.57;100.00;115900.28;6249080;23;20011;-85
2023/07/25 02:56:12;;;;;;;23.88;11.90;;;;;;;-142.57;100.00;115900.28;6198547;23;20020;-86
2023/07/25 02:58:38;;;;;;;24.92;12.30;;;;;;;-142.57;100.00;115900.28;6251611;23;20439;-84
2023/07/25 03:01:03;;;;;;;22.27;11.95;;;;;;;-142.57;100.00;115900.28;6223538;23;20229;-87
2023/07/25 03:03:31;;;;;;;19.35;10.55;;;;;;;-142.57;100.00;115900.28;6251069;23;20030;-85
2023/07/25 03:05:57;;;;;;;18.45;11.15;;;;;;;-142.57;100.00;115900.28;6230033;23;19999;-85
2023/07/25 03:08:23;;;;;;;19.90;10.95;;;;;;;-142.57;100.00;115900.28;6270519;22;20003;-84
2023/07/25 03:10:48;;;;;;;17.48;10.68;;;;;;;-142.57;100.00;115900.28;6243781;22;20005;-82
2023/07/25 03:13:14;;;;;;;16.63;10.55;;;;;;;-142.57;100.00;115900.28;6238567;23;20122;-86
2023/07/25 03:15:43;;;;;;;16.25;10.07;;;;;;;-142.57;100.00;115900.28;6223623;23;20031;-87
2023/07/25 03:18:09;;;;;;;16.15;9.10;;;;;;;-142.57;100.00;115900.28;6247838;23;20008;-86
2023/07/25 03:20:37;;;;;;;16.45;9.10;;;;;;;-142.57;100.00;115900.28;6248365;23;20069;-85
2023/07/25 03:23:03;;;;;;;14.27;8.43;;;;;;;-142.57;100.00;115900.28;6221108;23;20008;-87
2023/07/25 03:25:29;;;;;;;16.88;7.97;;;;;;;-142.57;100.00;115900.28;6221732;23;20012;-86
2023/07/25 03:27:54;;;;;;;15.10;7.85;;;;;;;-142.57;100.00;115900.28;6198062;23;20018;-85
2023/07/25 03:30:20;;;;;;;12.88;7.40;;;;;;;-142.57;100.00;115900.28;6224985;23;20004;-87
2023/07/25 03:32:45;;;;;;;20.60;7.60;;;;;;;-142.57;100.00;115900.28;6223390;23;20349;-86
2023/07/25 03:35:11;;;;;;;13.73;7.70;;;;;;;-142.57;100.00;115900.28;6249538;23;20042;-85
2023/07/25 03:37:36;;;;;;;15.35;8.23;;;;;;;-142.57;100.00;115900.28;6220953;23;20038;-85
2023/07/25 03:40:02;;;;;;;15.07;8.18;;;;;;;-142.57;100.00;115900.28;6221252;23;20091;-84
2023/07/25 03:42:28;;;;;;;13.98;7.68;;;;;;;-142.57;100.00;115900.28;6247153;23;20015;-86
2023/07/25 03:44:53;;;;;;;21.23;8.90;;;;;;;-142.57;100.00;115900.28;6247845;23;20440;-85
2023/07/25 03:47:19;;;;;;;16.88;8.57;;;;;;;-142.57;100.00;115900.28;6247265;23;20043;-86
2023/07/25 03:49:45;;;;;;;17.67;8.40;;;;;;;-142.57;100.00;115900.28;6247146;23;20016;-86
2023/07/25 03:52:11;;;;;;;15.18;9.25;;;;;;;-142.57;100.00;115900.28;6219815;23;20012;-84
2023/07/25 03:54:37;;;;;;;15.45;9.10;;;;;;;-142.57;100.00;115900.28;6246794;23;20011;-85
2023/07/25 03:57:03;;;;;;;19.38;8.98;;;;;;;-142.57;100.00;115900.28;6220627;23;20431;-84
2023/07/25 03:59:29;;;;;;;17.83;8.63;;;;;;;-142.57;100.00;115900.28;6220485;23;20004;-85
2023/07/25 04:01:55;;;;;;;19.63;8.70;;;;;;;-142.57;100.00;115900.28;6249208;23;20023;-84
2023/07/25 04:04:23;;;;;;;20.48;8.57;;;;;;;-142.57;100.00;115900.28;6223921;23;20006;-85
2023/07/25 04:06:49;;;;;;;22.83;10.27;;;;;;;-142.57;100.00;115900.28;6250006;23;20448;-85
2023/07/25 04:09:15;;;;;;;21.08;10.73;;;;;;;-142.57;100.00;115900.28;6245492;23;20158;-84
2023/07/25 04:11:40;;;;;;;27.10;10.60;;;;;;;-142.57;100.00;115900.28;6248076;23;20359;-85
2023/07/25 04:14:06;;;;;;;18.25;10.48;;;;;;;-142.57;100.00;115900.28;6250607;23;20387;-89
2023/07/25 04:16:32;;;;;;;22.80;10.82;;;;;;;-142.57;100.00;115900.28;6252152;23;20027;-88
2023/07/25 04:18:57;;;;;;;23.15;11.25;;;;;;;-142.57;100.00;115900.28;6223652;23;20015;-86
2023/07/25 04:21:23;;;;;;;21.10;10.60;;;;;;;-142.57;100.00;115900.28;6250894;23;20012;-85
2023/07/25 04:23:48;;;;;;;20.40;10.65;;;;;;;-142.57;100.00;115900.28;6224298;23;20379;-86
2023/07/25 04:26:14;;;;;;;17.80;11.20;;;;;;;-142.57;100.00;115900.28;6223451;23;20015;-88
2023/07/25 04:28:40;;;;;;;20.75;11.65;;;;;;;-142.57;100.00;115900.28;6249375;23;20015;-86
2023/07/25 04:31:05;;;;;;;18.23;11.38;;;;;;;-142.57;100.00;115900.28;6224426;23;20049;-86
2023/07/25 04:33:31;;;;;;;25.80;13.30;;;;;;;-142.57;100.00;115900.28;6224570;23;20012;-88
2023/07/25 04:35:57;;;;;;;25.05;12.98;;;;;;;-142.57;100.00;115900.28;6249188;23;20012;-86
2023/07/25 04:38:25;;;;;;;27.30;12.75;;;;;;;-142.57;100.00;115900.28;6222280;23;20036;-87
2023/07/25 04:40:51;;;;;;;20.05;12.10;;;;;;;-142.57;100.00;115900.28;6224630;23;20004;-86
2023/07/25 04:43:16;;;;;;;20.98;11.32;;;;;;;-142.57;100.00;115900.28;6250839;23;20012;-87
2023/07/25 04:45:45;;;;;;;21.52;12.30;;;;;;;-142.57;100.00;115900.28;6250631;23;20008;-88
2023/07/25 04:48:10;;;;;;;25.67;12.52;;;;;;;-142.57;100.00;115900.28;6222250;23;20008;-87
2023/07/25 04:50:36;;;;;;;21.75;12.07;;;;;;;-142.57;100.00;115900.28;6249306;23;20074;-87
2023/07/25 04:53:03;;;;;;;24.05;12.75;;;;;;;-142.57;100.00;115900.28;6199077;23;20059;-86
2023/07/25 04:55:29;;;;;;;21.52;13.02;;;;;;;-142.57;100.00;115900.28;6250569;23;20388;-86
2023/07/25 04:57:55;;;;;;;26.55;13.27;;;;;;;-142.57;100.00;115900.28;6221713;23;20008;-85
2023/07/25 05:00:23;;;;;;;24.42;12.43;;;;;;;-142.57;100.00;115900.28;6223613;23;20008;-86
2023/07/25 05:02:49;;;;;;;26.20;14.05;;;;;;;-142.57;100.00;115900.28;6251054;23;20036;-88
2023/07/25 05:05:14;;;;;;;21.77;12.70;;;;;;;-142.57;100.00;115900.28;6222325;23;20458;-88
2023/07/25 05:07:40;;;;;;;20.45;10.55;;;;;;;-142.57;100.00;115900.28;6251332;23;20375;-88
2023/07/25 05:10:08;;;;;;;16.73;8.63;;;;;;;-142.57;100.00;115900.28;6222635;23;20083;-88
2023/07/25 05:12:33;;;;;;;14.02;7.28;;;;;;;-142.57;100.00;115900.28;6248208;23;20008;-86
2023/07/25 05:14:59;;;;;;;16.92;6.35;;;;;;;-142.57;100.00;115900.28;6222583;23;20016;-90
2023/07/25 05:17:25;;;;;;;11.60;4.60;;;;;;;-142.57;100.00;115900.28;6250065;23;20039;-88
2023/07/25 05:19:50;;;;;;;11.65;5.25;;;;;;;-142.57;100.00;115900.28;6225182;23;20058;-90
2023/07/25 05:22:19;;;;;;;13.43;6.20;;;;;;;-142.57;100.00;115900.28;6254015;23;20064;-92
2023/07/25 05:24:48;;;;;;;15.20;6.15;;;;;;;-142.57;100.00;115900.28;6252566;23;20016;-90
2023/07/25 05:27:20;;;;;;;13.18;6.05;;;;;;;-142.57;100.00;115900.28;6254770;23;20008;-91
2023/07/25 05:29:48;;;;;;;13.90;6.15;;;;;;;-142.57;100.00;115900.28;6235211;23;20060;-91
2023/07/25 05:32:15;;;;;;;13.90;5.30;;;;;;;-142.57;100.00;115900.28;6232111;23;20463;-92
2023/07/25 05:34:41;;;;;;;13.25;5.53;;;;;;;-142.57;100.00;115900.28;6231324;23;20064;-91
2023/07/25 05:37:09;;;;;;;18.08;5.55;;;;;;;-142.57;100.00;115900.28;6226755;23;20012;-90
2023/07/25 05:39:35;;;;;;;13.13;4.82;;;;;;;-142.57;100.00;115900.28;6226905;23;20071;-90
2023/07/25 05:42:00;;;;;;;13.32;4.82;;;;;;;-142.57;100.00;115900.28;6252808;23;20019;-90
2023/07/25 05:44:26;;;;;;;16.02;5.45;;;;;;;-142.57;100.00;115900.28;6260619;23;20004;-89
2023/07/25 05:46:51;;;;;;;12.82;4.07;;;;;;;-142.57;100.00;115900.28;6265584;23;20014;-91
2023/07/25 05:49:20;;;;;;;10.30;3.60;;;;;;;-142.57;100.00;115900.28;6240326;23;20012;-91
2023/07/25 05:51:46;;;;;;;10.13;4.70;;;;;;;-142.57;100.00;115900.28;6264312;23;20129;-90
2023/07/25 05:54:15;;;;;;;5.85;3.47;;;;;;;-142.57;100.00;115900.28;6259294;23;20004;-90
2023/07/25 05:56:40;;;;;;;15.38;4.13;;;;;;;-142.57;100.00;115900.28;6257272;23;20008;-89
2023/07/25 05:59:09;;;;;;;11.50;3.80;;;;;;;-142.57;100.00;115900.28;6259041;23;20036;-87
2023/07/25 06:01:38;;;;;;;11.32;3.92;;;;;;;-142.57;100.00;115900.28;6206093;23;20043;-88
2023/07/25 06:04:26;;;;;;;13.93;3.60;;;;;;;-142.57;100.00;115900.28;6260480;23;20035;-90
2023/07/25 06:06:51;;;;;;;10.13;3.72;;;;;;;-142.57;100.00;115900.28;6264660;23;20015;-90
2023/07/25 06:09:17;;;;;;;10.40;3.90;;;;;;;-142.57;100.00;115900.28;6265091;23;20032;-93
2023/07/25 06:11:42;;;;;;;9.23;3.05;;;;;;;-142.57;100.00;115900.28;6264563;23;20008;-88
2023/07/25 06:14:08;;;;;;;11.48;3.13;;;;;;;-142.57;100.00;115900.28;6260209;23;20008;-91
2023/07/25 06:16:34;;;;;;;6.32;3.53;;;;;;;-142.57;100.00;115900.28;6252570;23;20012;-91
2023/07/25 06:19:00;;;;;;;8.18;3.90;;;;;;;-142.57;100.00;115900.28;6203026;23;20088;-91
2023/07/25 06:21:26;;;;;;;7.20;3.53;;;;;;;-142.57;100.00;115900.28;6207317;23;20008;-93
2023/07/25 06:23:55;;;;;;;7.97;4.55;;;;;;;-142.57;100.00;115900.28;6239037;23;20089;-89
2023/07/25 06:26:21;;;;;;;8.90;4.38;;;;;;;-142.57;100.00;115900.28;6254950;23;20016;-89
2023/07/25 06:28:54;;;;;;;11.57;3.80;;;;;;;-142.57;100.00;115900.28;6202669;23;20016;-91
2023/07/25 06:31:25;;;;;;;8.77;3.97;;;;;;;-142.57;100.00;115900.28;6255030;23;20019;-92
2023/07/25 06:33:53;;;;;;;8.82;4.03;;;;;;;-142.57;100.00;115900.28;6229537;23;20012;-92
2023/07/25 06:36:19;;;;;;;8.77;3.75;;;;;;;-142.57;100.00;115900.28;6255176;23;20335;-89
2023/07/25 06:38:45;;;;;;;9.90;4.25;;;;;;;-142.57;100.00;115900.28;6229472;23;20012;-89
2023/07/25 06:41:13;;;;;;;7.47;4.15;;;;;;;-142.57;100.00;115900.28;6259518;23;20004;-91
2023/07/25 06:43:42;;;;;;;6.45;3.78;;;;;;;-142.57;100.00;115900.28;6213697;23;19996;-89
2023/07/25 06:46:08;;;;;;;16.02;3.55;;;;;;;-142.57;100.00;115900.28;6260916;23;20039;-89
2023/07/25 06:48:34;;;;;;;7.93;4.00;;;;;;;-142.57;100.00;115900.28;6259015;23;20012;-91
2023/07/25 06:51:00;;;;;;;14.13;4.82;;;;;;;-142.57;100.00;115900.28;6202363;23;20064;-88
2023/07/25 06:53:28;;;;;;;18.52;5.03;;;;;;;-142.57;100.00;115900.28;6227778;23;20438;-93
2023/07/25 06:55:55;;;;;;;16.30;5.63;;;;;;;-142.57;100.00;115900.28;6218059;23;20024;-91
2023/07/25 06:58:35;;;;;;;27.63;6.10;;;;;;;-142.57;100.00;115900.28;6204779;23;20012;-91
2023/07/25 07:01:12;;;;;;;29.70;6.85;;;;;;;-142.57;100.00;115900.28;6234218;23;20072;-91
2023/07/25 07:09:47;;;;;;;34.80;11.60;;;;;;;-142.57;100.00;115900.28;6251651;22;20020;-90
2023/07/25 07:12:29;;;;;;;20.20;7.50;;;;;;;-142.57;100.00;115900.28;6091732;23;20015;-92
2023/07/25 07:15:24;;;;;;;21.55;8.13;;;;;;;-142.57;100.00;115900.28;6111314;23;20003;-91
2023/07/25 07:17:54;;;;;;;15.65;6.80;;;;;;;-142.57;100.00;115900.28;6081684;23;20015;-91
2023/07/25 07:20:23;;;;;;;15.60;6.07;;;;;;;-142.57;100.00;115900.28;6094133;23;20033;-91
2023/07/25 07:33:36;;;;;;;13.73;5.75;;;;;;;-142.57;100.00;115900.28;6273903;22;20116;-92
2023/07/25 07:36:10;;;;;;;13.98;5.32;;;;;;;-142.57;100.00;115900.28;6248404;23;20016;-93
2023/07/25 07:39:04;;;;;;;13.13;6.15;;;;;;;-142.57;100.00;115900.28;6249060;23;20007;-92
2023/07/25 07:44:48;;;;;;;16.15;6.00;;;;;;;-142.57;100.00;115900.28;6230330;23;20025;-91
2023/07/25 07:47:27;;;;;;;15.88;6.65;;;;;;;-142.57;100.00;115900.28;6179362;23;20012;-93
2023/07/25 07:49:59;;;;;;;16.63;5.60;;;;;;;-142.57;100.00;115900.28;6203522;23;20017;-93
2023/07/25 07:52:25;;;;;;;11.95;5.05;;;;;;;-142.57;100.00;115900.28;6239868;23;20035;-87
2023/07/25 07:54:51;;;;;;;14.55;5.63;;;;;;;-142.57;100.00;115900.28;6240972;23;20012;-90
2023/07/25 07:57:16;;;;;;;21.10;6.88;;;;;;;-142.57;100.00;115900.28;6237746;23;20024;-88
2023/07/25 07:59:43;;;;;;;17.52;5.82;;;;;;;-142.57;100.00;115900.28;6239777;23;20008;-91
2023/07/25 08:02:09;;;;;;;10.77;5.88;;;;;;;-142.57;100.00;115900.28;6214604;23;20004;-91
2023/07/25 08:04:53;;;;;;;18.75;6.28;;;;;;;-142.57;100.00;115900.28;6204955;23;20092;-90
2023/07/25 08:07:19;;;;;;;11.65;5.80;;;;;;;-142.57;100.00;115900.28;6221695;23;20012;-90
2023/07/25 08:09:44;;;;;;;9.82;4.45;;;;;;;-142.57;100.00;115900.28;6220671;23;20010;-92
2023/07/25 08:12:10;;;;;;;11.23;4.78;;;;;;;-142.57;100.00;115900.28;6194641;23;20008;-90
2023/07/25 08:14:40;;;;;;;12.55;4.32;;;;;;;-142.57;100.00;115900.28;6221076;23;20067;-91
2023/07/25 08:17:09;;;;;;;10.88;4.00;;;;;;;-142.57;100.00;115900.28;6195496;23;20035;-91
2023/07/25 08:19:37;;;;;;;11.00;3.53;;;;;;;-142.57;100.00;115900.28;6220292;23;20009;-91
2023/07/25 08:22:06;;;;;;;10.15;3.72;;;;;;;-142.57;100.00;115900.28;6196561;23;20028;-90
2023/07/25 08:24:35;;;;;;;9.93;3.60;;;;;;;-142.57;100.00;115900.28;6202401;23;20079;-90
2023/07/25 08:27:32;;;;;;;9.15;3.55;;;;;;;-142.57;100.00;115900.28;6208280;23;20008;-91
2023/07/25 08:38:13;;;;;;;7.70;3.35;;;;;;;-142.57;100.00;115900.28;6206147;22;20021;-92
2023/07/25 08:40:54;;;;;;;9.15;3.70;;;;;;;-142.57;100.00;115900.28;6200961;23;20057;-89
2023/07/25 08:43:46;;;;;;;8.63;3.55;;;;;;;-142.57;100.00;115900.28;6230064;23;20008;-92
2023/07/25 08:49:34;;;;;;;6.40;3.33;;;;;;;-142.57;100.00;115900.28;6229983;23;20032;-92
2023/07/25 08:52:02;;;;;;;8.95;3.53;;;;;;;-142.57;100.00;115900.28;6226174;23;20019;-91
2023/07/25 08:54:31;;;;;;;6.30;3.63;;;;;;;-142.57;100.00;115900.28;6228264;23;20036;-91
2023/07/25 08:57:00;;;;;;;8.55;4.15;;;;;;;-142.57;100.00;115900.28;6230179;23;20052;-92
2023/07/25 08:59:49;;;;;;;7.72;3.58;;;;;;;-142.57;100.00;115900.28;6231544;23;20512;-93
2023/07/25 09:02:17;;;;;;;10.18;4.10;;;;;;;-142.57;100.00;115900.28;6229314;23;20072;-91
2023/07/25 09:04:45;;;;;;;9.95;4.15;;;;;;;-142.57;100.00;115900.28;6234844;23;20008;-92
2023/07/25 09:07:11;;;;;;;11.18;4.68;;;;;;;-142.57;99.51;115900.28;6238217;23;20016;-91
2023/07/25 09:09:40;;;;;;;10.63;4.65;;;;;;;-142.57;94.78;115900.28;6235244;23;20016;-88
2023/07/25 09:17:35;;;;;;;8.90;4.32;;;;;;;-142.57;82.47;115900.28;6265765;22;20023;-90
2023/07/25 09:20:03;;;;;;;10.60;5.80;;;;;;;-142.57;80.25;115900.28;6244914;23;20011;-92
2023/07/25 09:22:45;;;;;;;13.40;6.00;;;;;;;-142.57;82.79;115900.28;6272739;22;20038;-94
2023/07/25 09:25:15;;;;;;;8.70;5.13;;;;;;;-142.57;84.11;115900.28;6215034;23;20012;-93
2023/07/25 09:28:00;;;;;;;12.52;5.72;;;;;;;-142.57;83.33;115900.28;6253442;23;20134;-93
2023/07/25 09:30:51;;;;;;;9.63;5.22;;;;;;;-142.57;83.19;115900.28;6225885;23;20050;-95
2023/07/25 09:33:29;;;;;;;12.50;6.07;;;;;;;-142.57;76.18;115900.28;6204421;23;20012;-92
2023/07/25 09:35:58;;;;;;;11.57;5.70;;;;;;;-142.57;79.66;115900.28;6204070;23;20313;-94
2023/07/25 09:38:24;;;;;;;8.52;5.20;;;;;;;-142.57;76.50;115900.28;6203459;23;20004;-93
2023/07/25 09:41:05;;;;;;;11.80;5.60;;;;;;;-142.57;75.66;115900.28;6256294;23;20011;-92
2023/07/25 09:43:34;;;;;;;11.38;6.15;;;;;;;-142.57;77.94;115900.28;6232929;23;20388;-92
2023/07/25 09:46:03;;;;;;;11.15;5.88;;;;;;;-142.57;77.97;115900.28;6252680;23;20019;-86
2023/07/25 09:48:28;;;;;;;11.00;6.30;;;;;;;-142.57;78.22;115900.28;6225214;23;20008;-88
2023/07/25 09:51:00;;;;;;;10.70;5.95;;;;;;;-142.57;77.39;115900.28;6260103;23;19996;-90
2023/07/25 09:53:30;;;;;;;11.45;6.38;;;;;;;-142.57;76.84;115900.28;6235539;23;20023;-90
2023/07/25 09:55:56;;;;;;;12.23;6.35;;;;;;;-142.57;79.12;115900.28;6229893;23;20028;-92
2023/07/25 09:58:25;;;;;;;13.15;6.65;;;;;;;-142.57;75.33;115900.28;6230281;23;20023;-91
2023/07/25 10:00:54;;;;;;;11.20;6.20;;;;;;;-142.57;74.57;115900.28;6232995;23;20004;-90
2023/07/25 10:03:22;;;;;;;17.48;6.75;;;;;;;-142.57;71.15;115900.28;6227946;23;20071;-92
2023/07/25 10:05:49;;;;;;;12.50;6.43;;;;;;;-142.57;71.88;115900.28;6225406;23;20309;-92
2023/07/25 10:08:31;;;;;;;10.73;6.03;;;;;;;-142.57;73.22;115900.28;6229249;23;20088;-92
2023/07/25 10:10:59;;;;;;;11.48;6.97;;;;;;;-142.57;69.78;115900.28;6218040;23;20012;-94
2023/07/25 10:13:35;;;;;;;10.48;7.18;;;;;;;-142.57;70.07;115900.28;6230445;23;20020;-92
2023/07/25 10:16:02;;;;;;;10.85;7.85;;;;;;;-142.57;71.73;115900.28;6230337;23;20032;-91
2023/07/25 10:18:37;;;;;;;14.52;7.97;;;;;;;-142.57;70.76;115900.28;6204685;23;20042;-91
2023/07/25 10:21:03;;;;;;;13.32;8.30;;;;;;;-142.57;71.40;115900.28;6226619;23;20016;-90
2023/07/25 10:23:34;;;;;;;13.23;8.82;;;;;;;-142.57;72.02;115900.28;6224970;23;20008;-92
2023/07/25 10:26:11;;;;;;;14.35;7.85;;;;;;;-142.57;70.63;115900.28;6252236;23;20012;-91
2023/07/25 10:28:37;;;;;;;18.17;9.88;;;;;;;-142.57;74.50;115900.28;6262301;23;20031;-93
2023/07/25 10:31:24;;;;;;;13.15;8.65;;;;;;;-142.57;72.65;115900.28;6213702;23;20034;-92
2023/07/25 10:33:55;;;;;;;15.18;10.15;;;;;;;-142.57;72.52;115900.28;6218232;23;20016;-87
2023/07/25 10:36:32;;;;;;;17.57;10.37;;;;;;;-142.57;73.47;115900.28;6258600;23;20023;-92
2023/07/25 10:39:09;;;;;;;15.30;9.32;;;;;;;-142.57;72.60;115900.28;6261333;22;20050;-89
2023/07/25 10:41:40;;;;;;;16.17;9.18;;;;;;;-142.57;71.55;115900.28;6252483;23;20103;-89
2023/07/25 10:44:08;;;;;;;21.00;10.13;;;;;;;-142.57;70.93;115900.28;6281112;22;20012;-89
2023/07/25 10:46:59;;;;;;;14.07;9.88;;;;;;;-142.57;72.88;115900.28;6264647;22;20032;-88
2023/07/25 10:49:24;;;;;;;19.40;10.93;;;;;;;-142.57;71.52;115900.28;6263411;23;20454;-88
2023/07/25 10:51:54;;;;;;;16.63;11.25;;;;;;;-142.57;69.74;115900.28;6230305;23;20035;-85
2023/07/25 10:54:22;;;;;;;17.13;11.40;;;;;;;-142.57;71.05;115900.28;6221581;23;20011;-85
2023/07/25 10:57:20;;;;;;;18.05;11.10;;;;;;;-142.57;70.70;115900.28;6249571;23;20008;-87
2023/07/25 11:00:00;;;;;;;17.20;10.80;;;;;;;-142.57;69.66;115900.28;6212600;23;20012;-88
2023/07/25 11:02:35;;;;;;;20.50;12.23;;;;;;;-142.57;70.34;115900.28;6254553;23;20012;-90
2023/07/25 11:05:16;;;;;;;14.98;10.25;;;;;;;-142.57;72.71;115900.28;6230991;23;20043;-87
2023/07/25 11:07:49;;;;;;;16.98;11.05;;;;;;;-142.57;71.02;115900.28;6235058;23;20016;-92
2023/07/25 11:10:29;;;;;;;16.60;10.85;;;;;;;-142.57;70.48;115900.28;6255448;23;20019;-88
2023/07/25 11:12:57;;;;;;;16.67;11.13;;;;;;;-142.57;67.81;115900.28;6226765;23;20012;-89
2023/07/25 11:15:23;;;;;;;17.17;9.32;;;;;;;-142.57;67.23;115900.28;6230837;23;20038;-88
2023/07/25 11:17:49;;;;;;;16.63;9.48;;;;;;;-142.57;67.10;115900.28;6231307;23;20103;-90
2023/07/25 11:20:22;;;;;;;14.82;10.27;;;;;;;-142.57;69.52;115900.28;6260344;23;20000;-87
2023/07/25 11:22:49;;;;;;;13.25;9.60;;;;;;;-142.57;67.00;115900.28;6230641;23;20019;-87
2023/07/25 11:25:15;;;;;;;16.13;8.88;;;;;;;-142.57;68.91;115900.28;6230587;23;20066;-91
2023/07/25 11:27:42;;;;;;;18.63;9.25;;;;;;;-142.57;66.80;115900.28;6256933;23;20008;-89
2023/07/25 11:30:13;;;;;;;16.23;8.30;;;;;;;-142.57;67.72;115900.28;6263386;23;20040;-86
2023/07/25 11:32:45;;;;;;;13.93;8.23;;;;;;;-142.57;67.77;115900.28;6208633;23;20336;-90
2023/07/25 11:35:11;;;;;;;12.93;8.20;;;;;;;-142.57;66.24;115900.28;6257986;23;20091;-88
2023/07/25 11:37:36;;;;;;;13.75;8.10;;;;;;;-142.57;67.72;115900.28;6258078;23;20000;-89
2023/07/25 11:40:20;;;;;;;13.38;8.25;;;;;;;-142.57;68.28;115900.28;6256905;23;20044;-86